TAM3556 SBGR-SBCF
Flight info
| Callsign | TAM3556 |
|---|---|
| Flight time | 0h 52m |
| Altitude | 35000 |
| Route | NUXEL UZ23 KIBAP |
| Aircraft | A320/M-SDE3FGHIRWY/LB1 |
Departure
| Time | 2026-05-08 20:12 |
|---|---|
| Airport | São Paulo/Guarulhos–Governor André Franco Montoro International Airport (SBGR) |
Arrival
| Time | 2026-05-08 21:04 |
|---|---|
| Airport | Tancredo Neves International Airport (SBCF) |
| Time | Latitude | Longitude | Altitude | Speed | Heading |
|---|---|---|---|---|---|
| 2026-05-08 18:56 | -23.42973 | -46.48281 | 2468 ft | 0 kts | 356° |
| 2026-05-08 20:01 | -23.42974 | -46.48281 | 2468 ft | 1 kts | 356° |
| 2026-05-08 20:02 | -23.42988 | -46.48280 | 2468 ft | 2 kts | 356° |
| 2026-05-08 20:02 | -23.43003 | -46.48279 | 2468 ft | 2 kts | 356° |
| 2026-05-08 20:02 | -23.43018 | -46.48278 | 2468 ft | 2 kts | 356° |
| 2026-05-08 20:02 | -23.43033 | -46.48277 | 2468 ft | 2 kts | 356° |
| 2026-05-08 20:03 | -23.43048 | -46.48278 | 2468 ft | 2 kts | 31° |
| 2026-05-08 20:03 | -23.43059 | -46.48290 | 2468 ft | 2 kts | 69° |
| 2026-05-08 20:03 | -23.43060 | -46.48298 | 2468 ft | 1 kts | 91° |
| 2026-05-08 20:03 | -23.43060 | -46.48304 | 2468 ft | 0 kts | 85° |
| 2026-05-08 20:05 | -23.43060 | -46.48303 | 2468 ft | 0 kts | 85° |
| 2026-05-08 20:05 | -23.43060 | -46.48301 | 2468 ft | 0 kts | 85° |
| 2026-05-08 20:06 | -23.43059 | -46.48286 | 2468 ft | 2 kts | 83° |
| 2026-05-08 20:06 | -23.43056 | -46.48257 | 2468 ft | 4 kts | 84° |
| 2026-05-08 20:06 | -23.43052 | -46.48214 | 2468 ft | 6 kts | 84° |
| 2026-05-08 20:06 | -23.43050 | -46.48162 | 2468 ft | 7 kts | 100° |
| 2026-05-08 20:07 | -23.43088 | -46.48126 | 2468 ft | 7 kts | 145° |
| 2026-05-08 20:07 | -23.43100 | -46.48069 | 2468 ft | 8 kts | 76° |
| 2026-05-08 20:07 | -23.43082 | -46.48001 | 2468 ft | 9 kts | 73° |
| 2026-05-08 20:07 | -23.43061 | -46.47922 | 2468 ft | 11 kts | 73° |
| 2026-05-08 20:08 | -23.43037 | -46.47834 | 2468 ft | 12 kts | 73° |
| 2026-05-08 20:08 | -23.43012 | -46.47741 | 2468 ft | 13 kts | 74° |
| 2026-05-08 20:08 | -23.42985 | -46.47641 | 2468 ft | 14 kts | 73° |
| 2026-05-08 20:08 | -23.42957 | -46.47538 | 2469 ft | 14 kts | 74° |
| 2026-05-08 20:09 | -23.42928 | -46.47430 | 2469 ft | 15 kts | 73° |
| 2026-05-08 20:09 | -23.42898 | -46.47317 | 2469 ft | 15 kts | 73° |
| 2026-05-08 20:09 | -23.42866 | -46.47202 | 2469 ft | 16 kts | 73° |
| 2026-05-08 20:09 | -23.42834 | -46.47085 | 2469 ft | 16 kts | 73° |
| 2026-05-08 20:10 | -23.42803 | -46.46968 | 2469 ft | 15 kts | 73° |
| 2026-05-08 20:10 | -23.42775 | -46.46863 | 2469 ft | 13 kts | 77° |
| 2026-05-08 20:10 | -23.42834 | -46.46801 | 2469 ft | 13 kts | 163° |
| 2026-05-08 20:10 | -23.42930 | -46.46771 | 2469 ft | 13 kts | 163° |
| 2026-05-08 20:11 | -23.42996 | -46.46749 | 2469 ft | 4 kts | 171° |
| 2026-05-08 20:11 | -23.43004 | -46.46766 | 2469 ft | 6 kts | 255° |
| 2026-05-08 20:11 | -23.43090 | -46.47078 | 2469 ft | 83 kts | 253° |
| 2026-05-08 20:11 | -23.43324 | -46.47940 | 2469 ft | 152 kts | 254° |
| 2026-05-08 20:12 | -23.43651 | -46.49111 | 2955 ft | 166 kts | 255° |
| 2026-05-08 20:12 | -23.43967 | -46.50289 | 3760 ft | 161 kts | 258° |
| 2026-05-08 20:12 | -23.44268 | -46.51428 | 4270 ft | 159 kts | 260° |
| 2026-05-08 20:12 | -23.44581 | -46.52638 | 4543 ft | 174 kts | 260° |
| 2026-05-08 20:13 | -23.44921 | -46.53953 | 4844 ft | 189 kts | 259° |
| 2026-05-08 20:13 | -23.45301 | -46.55393 | 5162 ft | 206 kts | 258° |
| 2026-05-08 20:13 | -23.46061 | -46.56823 | 5454 ft | 234 kts | 227° |
| 2026-05-08 20:13 | -23.47583 | -46.57631 | 5774 ft | 261 kts | 190° |
| 2026-05-08 20:14 | -23.49411 | -46.57479 | 6501 ft | 263 kts | 172° |
| 2026-05-08 20:14 | -23.51195 | -46.57107 | 7164 ft | 266 kts | 164° |
| 2026-05-08 20:14 | -23.52771 | -46.56074 | 7772 ft | 269 kts | 127° |
| 2026-05-08 20:14 | -23.53531 | -46.54295 | 8458 ft | 260 kts | 90° |
| 2026-05-08 20:15 | -23.53230 | -46.52440 | 9134 ft | 247 kts | 53° |
| 2026-05-08 20:15 | -23.52051 | -46.51192 | 9799 ft | 235 kts | 22° |
| 2026-05-08 20:15 | -23.50547 | -46.50547 | 10452 ft | 237 kts | 15° |
| 2026-05-08 20:15 | -23.48966 | -46.49876 | 10858 ft | 254 kts | 19° |
| 2026-05-08 20:16 | -23.47283 | -46.49067 | 11225 ft | 272 kts | 21° |
| 2026-05-08 20:16 | -23.45516 | -46.48152 | 11570 ft | 290 kts | 22° |
| 2026-05-08 20:16 | -23.43661 | -46.47152 | 11993 ft | 303 kts | 23° |
| 2026-05-08 20:16 | -23.41781 | -46.46113 | 12640 ft | 307 kts | 24° |
| 2026-05-08 20:17 | -23.39882 | -46.45048 | 13352 ft | 308 kts | 24° |
| 2026-05-08 20:17 | -23.37969 | -46.43969 | 13998 ft | 311 kts | 24° |
| 2026-05-08 20:17 | -23.36050 | -46.42883 | 14586 ft | 315 kts | 24° |
| 2026-05-08 20:17 | -23.34076 | -46.41763 | 15168 ft | 319 kts | 24° |
| 2026-05-08 20:18 | -23.32120 | -46.40654 | 15731 ft | 322 kts | 24° |
| 2026-05-08 20:18 | -23.30130 | -46.39524 | 16277 ft | 325 kts | 24° |
| 2026-05-08 20:18 | -23.28096 | -46.38370 | 16810 ft | 329 kts | 24° |
| 2026-05-08 20:18 | -23.26069 | -46.37221 | 17327 ft | 332 kts | 24° |
| 2026-05-08 20:19 | -23.24000 | -46.36047 | 17869 ft | 335 kts | 24° |
| 2026-05-08 20:19 | -23.21928 | -46.34872 | 18383 ft | 338 kts | 23° |
| 2026-05-08 20:19 | -23.19837 | -46.33685 | 18903 ft | 341 kts | 23° |
| 2026-05-08 20:19 | -23.17712 | -46.32480 | 19417 ft | 344 kts | 23° |
| 2026-05-08 20:20 | -23.15586 | -46.31275 | 19911 ft | 347 kts | 23° |
| 2026-05-08 20:20 | -23.13440 | -46.30059 | 20405 ft | 350 kts | 22° |
| 2026-05-08 20:20 | -23.11280 | -46.28838 | 20896 ft | 353 kts | 23° |
| 2026-05-08 20:20 | -23.09093 | -46.27600 | 21396 ft | 356 kts | 22° |
| 2026-05-08 20:21 | -23.06882 | -46.26348 | 21903 ft | 358 kts | 22° |
| 2026-05-08 20:21 | -23.04667 | -46.25095 | 22404 ft | 361 kts | 22° |
| 2026-05-08 20:21 | -23.02449 | -46.23842 | 22873 ft | 364 kts | 22° |
| 2026-05-08 20:21 | -23.00194 | -46.22568 | 23334 ft | 367 kts | 22° |
| 2026-05-08 20:22 | -22.97896 | -46.21270 | 23797 ft | 370 kts | 22° |
| 2026-05-08 20:22 | -22.95605 | -46.19975 | 24249 ft | 373 kts | 22° |
| 2026-05-08 20:22 | -22.93286 | -46.18664 | 24684 ft | 376 kts | 22° |
| 2026-05-08 20:22 | -22.90975 | -46.17361 | 25091 ft | 380 kts | 22° |
| 2026-05-08 20:23 | -22.88598 | -46.16021 | 25507 ft | 383 kts | 21° |
| 2026-05-08 20:23 | -22.86210 | -46.14674 | 25938 ft | 386 kts | 21° |
| 2026-05-08 20:23 | -22.83823 | -46.13329 | 26330 ft | 390 kts | 21° |
| 2026-05-08 20:23 | -22.81386 | -46.11957 | 26711 ft | 394 kts | 21° |
| 2026-05-08 20:24 | -22.78942 | -46.10582 | 27080 ft | 397 kts | 21° |
| 2026-05-08 20:24 | -22.76484 | -46.09198 | 27472 ft | 400 kts | 21° |
| 2026-05-08 20:24 | -22.74019 | -46.07812 | 27830 ft | 403 kts | 21° |
| 2026-05-08 20:24 | -22.71496 | -46.06393 | 28198 ft | 406 kts | 21° |
| 2026-05-08 20:25 | -22.68982 | -46.04979 | 28562 ft | 409 kts | 21° |
| 2026-05-08 20:25 | -22.66437 | -46.03548 | 28898 ft | 412 kts | 21° |
| 2026-05-08 20:25 | -22.63898 | -46.02121 | 29226 ft | 416 kts | 21° |
| 2026-05-08 20:25 | -22.61325 | -46.00677 | 29525 ft | 419 kts | 21° |
| 2026-05-08 20:26 | -22.58717 | -45.99216 | 29826 ft | 423 kts | 21° |
| 2026-05-08 20:26 | -22.56071 | -45.97731 | 30140 ft | 426 kts | 21° |
| 2026-05-08 20:26 | -22.53426 | -45.96248 | 30467 ft | 428 kts | 21° |
| 2026-05-08 20:26 | -22.50784 | -45.94767 | 30771 ft | 431 kts | 22° |
| 2026-05-08 20:27 | -22.48101 | -45.93263 | 31059 ft | 434 kts | 22° |
| 2026-05-08 20:27 | -22.45418 | -45.91762 | 31343 ft | 436 kts | 22° |
| 2026-05-08 20:27 | -22.42715 | -45.90248 | 31638 ft | 438 kts | 22° |
| 2026-05-08 20:27 | -22.40006 | -45.88730 | 31921 ft | 440 kts | 22° |
| 2026-05-08 20:28 | -22.37294 | -45.87212 | 32221 ft | 442 kts | 22° |
| 2026-05-08 20:28 | -22.34566 | -45.85688 | 32495 ft | 444 kts | 22° |
| 2026-05-08 20:28 | -22.31822 | -45.84136 | 32749 ft | 447 kts | 24° |
| 2026-05-08 20:28 | -22.29126 | -45.82431 | 32986 ft | 451 kts | 27° |
| 2026-05-08 20:29 | -22.26501 | -45.80541 | 33233 ft | 456 kts | 31° |
| 2026-05-08 20:29 | -22.23943 | -45.78451 | 33501 ft | 460 kts | 34° |
| 2026-05-08 20:29 | -22.21436 | -45.76288 | 33734 ft | 462 kts | 34° |
| 2026-05-08 20:29 | -22.18956 | -45.74136 | 33982 ft | 464 kts | 35° |
| 2026-05-08 20:30 | -22.16435 | -45.71949 | 34226 ft | 465 kts | 35° |
| 2026-05-08 20:30 | -22.13901 | -45.69751 | 34611 ft | 464 kts | 35° |
| 2026-05-08 20:30 | -22.11393 | -45.67580 | 34940 ft | 463 kts | 34° |
| 2026-05-08 20:30 | -22.08881 | -45.65412 | 35074 ft | 467 kts | 35° |
| 2026-05-08 20:31 | -22.03767 | -45.61004 | 35147 ft | 471 kts | 35° |
| 2026-05-08 20:31 | -21.98640 | -45.56588 | 35157 ft | 473 kts | 35° |
| 2026-05-08 20:32 | -21.93498 | -45.52162 | 35164 ft | 473 kts | 35° |
| 2026-05-08 20:32 | -21.88337 | -45.47725 | 35164 ft | 473 kts | 35° |
| 2026-05-08 20:33 | -21.83186 | -45.43301 | 35157 ft | 472 kts | 35° |
| 2026-05-08 20:33 | -21.78024 | -45.38872 | 35150 ft | 472 kts | 35° |
| 2026-05-08 20:34 | -21.72891 | -45.34473 | 35143 ft | 472 kts | 35° |
| 2026-05-08 20:35 | -21.65157 | -45.27854 | 35146 ft | 472 kts | 35° |
| 2026-05-08 20:35 | -21.60011 | -45.23453 | 35151 ft | 472 kts | 35° |
| 2026-05-08 20:36 | -21.54896 | -45.19083 | 35154 ft | 472 kts | 35° |
| 2026-05-08 20:36 | -21.49747 | -45.14690 | 35159 ft | 472 kts | 36° |
| 2026-05-08 20:37 | -21.44620 | -45.10318 | 35164 ft | 472 kts | 36° |
| 2026-05-08 20:37 | -21.39450 | -45.05914 | 35169 ft | 472 kts | 36° |
| 2026-05-08 20:38 | -21.34316 | -45.01544 | 35173 ft | 472 kts | 36° |
| 2026-05-08 20:38 | -21.29167 | -44.97168 | 35170 ft | 472 kts | 36° |
| 2026-05-08 20:39 | -21.24017 | -44.92791 | 35173 ft | 473 kts | 36° |
| 2026-05-08 20:39 | -21.18883 | -44.88434 | 35177 ft | 473 kts | 36° |
| 2026-05-08 20:40 | -21.13704 | -44.84043 | 35174 ft | 472 kts | 36° |
| 2026-05-08 20:40 | -21.08552 | -44.79679 | 35179 ft | 473 kts | 36° |
| 2026-05-08 20:41 | -21.03341 | -44.75405 | 35182 ft | 472 kts | 33° |
| 2026-05-08 20:41 | -20.98003 | -44.71323 | 35186 ft | 472 kts | 33° |
| 2026-05-08 20:42 | -20.92663 | -44.67255 | 35183 ft | 472 kts | 33° |
| 2026-05-08 20:42 | -20.87287 | -44.63152 | 35186 ft | 472 kts | 33° |
| 2026-05-08 20:43 | -20.81740 | -44.59415 | 35140 ft | 471 kts | 26° |
| 2026-05-08 20:43 | -20.78799 | -44.57830 | 34599 ft | 472 kts | 22° |
| 2026-05-08 20:43 | -20.75790 | -44.56473 | 33947 ft | 471 kts | 18° |
| 2026-05-08 20:43 | -20.72677 | -44.55323 | 33245 ft | 470 kts | 14° |
| 2026-05-08 20:44 | -20.69560 | -44.54401 | 32578 ft | 469 kts | 12° |
| 2026-05-08 20:44 | -20.66386 | -44.53543 | 31862 ft | 468 kts | 11° |
| 2026-05-08 20:44 | -20.63230 | -44.52700 | 31099 ft | 468 kts | 11° |
| 2026-05-08 20:44 | -20.60080 | -44.51856 | 30426 ft | 466 kts | 11° |
| 2026-05-08 20:45 | -20.56940 | -44.51009 | 29922 ft | 459 kts | 11° |
| 2026-05-08 20:45 | -20.53873 | -44.50180 | 29423 ft | 453 kts | 11° |
| 2026-05-08 20:45 | -20.50847 | -44.49361 | 28919 ft | 448 kts | 11° |
| 2026-05-08 20:45 | -20.47845 | -44.48550 | 28415 ft | 442 kts | 11° |
| 2026-05-08 20:46 | -20.44867 | -44.47747 | 27915 ft | 437 kts | 11° |
| 2026-05-08 20:46 | -20.41927 | -44.46952 | 27421 ft | 432 kts | 12° |
| 2026-05-08 20:46 | -20.39038 | -44.46172 | 26931 ft | 427 kts | 12° |
| 2026-05-08 20:46 | -20.36147 | -44.45391 | 26438 ft | 422 kts | 12° |
| 2026-05-08 20:47 | -20.33346 | -44.44630 | 25951 ft | 417 kts | 12° |
| 2026-05-08 20:47 | -20.30525 | -44.43863 | 25461 ft | 413 kts | 13° |
| 2026-05-08 20:47 | -20.27749 | -44.43108 | 24974 ft | 408 kts | 13° |
| 2026-05-08 20:47 | -20.25009 | -44.42363 | 24492 ft | 404 kts | 13° |
| 2026-05-08 20:48 | -20.22318 | -44.41633 | 24017 ft | 400 kts | 13° |
| 2026-05-08 20:48 | -20.19617 | -44.40902 | 23535 ft | 396 kts | 14° |
| 2026-05-08 20:48 | -20.16973 | -44.40187 | 23060 ft | 393 kts | 14° |
| 2026-05-08 20:48 | -20.14329 | -44.39471 | 22585 ft | 389 kts | 14° |
| 2026-05-08 20:49 | -20.11710 | -44.38758 | 22125 ft | 385 kts | 14° |
| 2026-05-08 20:49 | -20.09131 | -44.38053 | 21667 ft | 382 kts | 14° |
| 2026-05-08 20:49 | -20.06539 | -44.37344 | 21195 ft | 379 kts | 14° |
| 2026-05-08 20:49 | -20.04014 | -44.36655 | 20726 ft | 376 kts | 14° |
| 2026-05-08 20:50 | -20.01488 | -44.35970 | 20253 ft | 373 kts | 14° |
| 2026-05-08 20:50 | -19.98985 | -44.35294 | 19780 ft | 371 kts | 14° |
| 2026-05-08 20:50 | -19.96483 | -44.34618 | 19310 ft | 368 kts | 13° |
| 2026-05-08 20:50 | -19.93946 | -44.33934 | 18832 ft | 366 kts | 13° |
| 2026-05-08 20:51 | -19.91487 | -44.33269 | 18371 ft | 363 kts | 14° |
| 2026-05-08 20:51 | -19.89135 | -44.32293 | 17892 ft | 362 kts | 30° |
| 2026-05-08 20:51 | -19.87167 | -44.30630 | 17412 ft | 363 kts | 46° |
| 2026-05-08 20:51 | -19.85622 | -44.28508 | 16942 ft | 363 kts | 53° |
| 2026-05-08 20:52 | -19.84170 | -44.26335 | 16481 ft | 361 kts | 53° |
| 2026-05-08 20:52 | -19.82734 | -44.24178 | 15989 ft | 359 kts | 53° |
| 2026-05-08 20:52 | -19.81283 | -44.22007 | 15541 ft | 356 kts | 53° |
| 2026-05-08 20:52 | -19.79862 | -44.19890 | 15109 ft | 354 kts | 53° |
| 2026-05-08 20:53 | -19.78436 | -44.17773 | 14644 ft | 352 kts | 53° |
| 2026-05-08 20:53 | -19.77002 | -44.15649 | 14193 ft | 349 kts | 53° |
| 2026-05-08 20:53 | -19.75604 | -44.13580 | 13751 ft | 346 kts | 52° |
| 2026-05-08 20:53 | -19.74205 | -44.11513 | 13305 ft | 343 kts | 53° |
| 2026-05-08 20:54 | -19.72827 | -44.09477 | 12862 ft | 340 kts | 52° |
| 2026-05-08 20:54 | -19.71444 | -44.07437 | 12414 ft | 337 kts | 52° |
| 2026-05-08 20:54 | -19.70094 | -44.05444 | 11970 ft | 334 kts | 52° |
| 2026-05-08 20:54 | -19.68736 | -44.03443 | 11524 ft | 331 kts | 53° |
| 2026-05-08 20:55 | -19.67405 | -44.01481 | 11203 ft | 323 kts | 53° |
| 2026-05-08 20:55 | -19.66125 | -43.99594 | 11144 ft | 307 kts | 53° |
| 2026-05-08 20:55 | -19.64913 | -43.97804 | 11138 ft | 290 kts | 52° |
| 2026-05-08 20:55 | -19.63774 | -43.96143 | 11132 ft | 274 kts | 51° |
| 2026-05-08 20:56 | -19.62610 | -43.94545 | 10784 ft | 273 kts | 50° |
| 2026-05-08 20:56 | -19.61438 | -43.92953 | 10361 ft | 275 kts | 50° |
| 2026-05-08 20:56 | -19.60253 | -43.91342 | 9944 ft | 277 kts | 50° |
| 2026-05-08 20:56 | -19.59220 | -43.89642 | 9496 ft | 282 kts | 69° |
| 2026-05-08 20:57 | -19.59082 | -43.87558 | 9065 ft | 289 kts | 102° |
| 2026-05-08 20:57 | -19.60040 | -43.85714 | 8783 ft | 290 kts | 133° |
| 2026-05-08 20:57 | -19.61568 | -43.84345 | 8526 ft | 287 kts | 139° |
| 2026-05-08 20:57 | -19.63103 | -43.83006 | 8258 ft | 282 kts | 138° |
| 2026-05-08 20:58 | -19.64581 | -43.81677 | 7993 ft | 273 kts | 137° |
| 2026-05-08 20:58 | -19.65996 | -43.80381 | 7741 ft | 261 kts | 137° |
| 2026-05-08 20:58 | -19.67326 | -43.79154 | 7518 ft | 251 kts | 136° |
| 2026-05-08 20:58 | -19.68649 | -43.77945 | 7291 ft | 247 kts | 141° |
| 2026-05-08 20:59 | -19.70224 | -43.77241 | 7039 ft | 246 kts | 178° |
| 2026-05-08 20:59 | -19.71821 | -43.77681 | 6818 ft | 238 kts | 219° |
| 2026-05-08 20:59 | -19.72931 | -43.78928 | 6625 ft | 229 kts | 236° |
| 2026-05-08 20:59 | -19.73876 | -43.80275 | 6394 ft | 227 kts | 236° |
| 2026-05-08 21:00 | -19.74831 | -43.81587 | 6165 ft | 224 kts | 234° |
| 2026-05-08 21:00 | -19.75779 | -43.82909 | 5922 ft | 220 kts | 247° |
| 2026-05-08 21:00 | -19.76066 | -43.84433 | 5646 ft | 213 kts | 282° |
| 2026-05-08 21:00 | -19.75486 | -43.85820 | 5360 ft | 206 kts | 315° |
| 2026-05-08 21:01 | -19.74431 | -43.86821 | 5127 ft | 200 kts | 323° |
| 2026-05-08 21:01 | -19.73315 | -43.87732 | 4723 ft | 199 kts | 323° |
| 2026-05-08 21:01 | -19.72291 | -43.88622 | 4556 ft | 181 kts | 321° |
| 2026-05-08 21:01 | -19.71380 | -43.89458 | 4372 ft | 168 kts | 321° |
| 2026-05-08 21:02 | -19.70530 | -43.90249 | 4168 ft | 157 kts | 321° |
| 2026-05-08 21:02 | -19.69729 | -43.90993 | 3971 ft | 152 kts | 321° |
| 2026-05-08 21:02 | -19.68930 | -43.91734 | 3779 ft | 151 kts | 321° |
| 2026-05-08 21:02 | -19.68132 | -43.92467 | 3598 ft | 151 kts | 321° |
| 2026-05-08 21:03 | -19.67331 | -43.93206 | 3409 ft | 152 kts | 320° |
| 2026-05-08 21:03 | -19.66541 | -43.93944 | 3228 ft | 152 kts | 321° |
| 2026-05-08 21:03 | -19.65734 | -43.94683 | 3030 ft | 152 kts | 320° |
| 2026-05-08 21:03 | -19.64946 | -43.95419 | 2832 ft | 152 kts | 320° |
| 2026-05-08 21:04 | -19.64160 | -43.96146 | 2749 ft | 137 kts | 318° |
| 2026-05-08 21:04 | -19.63575 | -43.96689 | 2748 ft | 88 kts | 319° |
| 2026-05-08 21:04 | -19.63240 | -43.96998 | 2748 ft | 43 kts | 319° |
| 2026-05-08 21:04 | -19.63045 | -43.97178 | 2748 ft | 21 kts | 319° |
| 2026-05-08 21:05 | -19.62954 | -43.97229 | 2748 ft | 14 kts | 13° |
| 2026-05-08 21:05 | -19.62882 | -43.97150 | 2748 ft | 14 kts | 52° |
| 2026-05-08 21:05 | -19.62916 | -43.97067 | 2748 ft | 14 kts | 139° |
| 2026-05-08 21:05 | -19.62993 | -43.96996 | 2748 ft | 15 kts | 138° |
| 2026-05-08 21:06 | -19.63072 | -43.96921 | 2748 ft | 15 kts | 139° |
| 2026-05-08 21:06 | -19.63156 | -43.96844 | 2748 ft | 15 kts | 139° |
| 2026-05-08 21:06 | -19.63237 | -43.96769 | 2748 ft | 12 kts | 139° |
| 2026-05-08 21:06 | -19.63256 | -43.96695 | 2748 ft | 12 kts | 54° |
| 2026-05-08 21:07 | -19.63196 | -43.96624 | 2748 ft | 12 kts | 24° |
| 2026-05-08 21:07 | -19.63123 | -43.96670 | 2748 ft | 11 kts | 319° |
| 2026-05-08 21:07 | -19.63083 | -43.96707 | 2748 ft | 5 kts | 322° |
| 2026-05-08 21:07 | -19.63051 | -43.96699 | 2748 ft | 5 kts | 46° |
| 2026-05-08 21:08 | -19.63030 | -43.96672 | 2748 ft | 2 kts | 50° |
| 2026-05-08 21:08 | -19.63024 | -43.96665 | 2748 ft | 0 kts | 51° |